Time,TemperatureF,DewpointF,PressureIn,WindDirection,WindDirectionDegrees,WindSpeedMPH,WindSpeedGustMPH,Humidity,HourlyPrecipIn,Conditions,Clouds,dailyrainin,SoftwareType,DateUTC
2013-02-11 00:02:00,69.0,67.0,30.01,South,169,0.0,5.0,94,0.00,,,0.02,,2013-02-11 06:02:00,
2013-02-11 00:11:00,69.0,67.0,30.01,South,169,0.0,5.0,94,0.00,,,0.02,,2013-02-11 06:11:00,
2013-02-11 00:21:00,69.0,67.0,30.00,South,170,1.0,6.0,94,0.00,,,0.02,,2013-02-11 06:21:00,
2013-02-11 00:32:00,69.0,67.0,30.00,SSE,155,2.0,6.0,94,0.00,,,0.02,,2013-02-11 06:32:00,
2013-02-11 00:42:00,69.0,67.0,29.99,SSE,160,3.0,5.0,94,0.00,,,0.02,,2013-02-11 06:42:00,
2013-02-11 00:51:00,69.0,67.0,29.99,SSE,160,3.0,5.0,94,0.00,,,0.02,,2013-02-11 06:51:00,
2013-02-11 01:01:00,69.0,67.0,30.00,South,183,1.0,3.0,94,0.00,,,0.02,,2013-02-11 07:01:00,
2013-02-11 01:11:00,69.0,68.0,30.00,SSE,147,2.0,6.0,95,0.00,,,0.02,,2013-02-11 07:11:00,
2013-02-11 01:21:00,69.0,68.0,30.00,SSE,147,2.0,6.0,95,0.00,,,0.02,,2013-02-11 07:21:00,
2013-02-11 01:32:00,69.0,68.0,30.00,SE,126,0.0,2.0,95,0.00,,,0.02,,2013-02-11 07:32:00,
2013-02-11 01:41:00,69.0,68.0,30.00,SE,126,0.0,2.0,95,0.00,,,0.02,,2013-02-11 07:41:00,
2013-02-11 01:52:00,69.0,68.0,30.00,SE,126,0.0,2.0,95,0.00,,,0.02,,2013-02-11 07:52:00,
2013-02-11 02:01:00,68.0,67.0,29.99,SSE,165,2.0,3.0,95,0.00,,,0.02,,2013-02-11 08:01:00,
2013-02-11 02:11:00,68.0,67.0,29.99,SSE,165,2.0,3.0,95,0.00,,,0.02,,2013-02-11 08:11:00,
2013-02-11 02:21:00,68.0,67.0,29.99,SSE,165,2.0,3.0,95,0.00,,,0.02,,2013-02-11 08:21:00,
2013-02-11 02:32:00,69.0,68.0,29.99,SSE,153,0.0,3.0,95,0.00,,,0.02,,2013-02-11 08:32:00,
2013-02-11 02:42:00,69.0,68.0,29.99,SSE,153,1.0,5.0,95,0.00,,,0.02,,2013-02-11 08:42:00,
2013-02-11 02:52:00,69.0,68.0,29.99,SSE,153,1.0,5.0,95,0.00,,,0.02,,2013-02-11 08:52:00,
2013-02-11 03:01:00,69.0,68.0,29.99,SW,231,1.0,5.0,95,0.00,,,0.01,,2013-02-11 09:01:00,
2013-02-11 03:12:00,69.0,68.0,29.99,SW,231,1.0,5.0,95,0.00,,,0.01,,2013-02-11 09:12:00,
2013-02-11 03:21:00,69.0,68.0,29.99,SSW,212,2.0,3.0,95,0.00,,,0.01,,2013-02-11 09:21:00,
2013-02-11 03:32:00,68.0,67.0,29.99,SW,222,1.0,3.0,95,0.00,,,0.00,,2013-02-11 09:32:00,
2013-02-11 03:41:00,68.0,67.0,29.99,SW,222,1.0,3.0,95,0.00,,,0.00,,2013-02-11 09:41:00,
2013-02-11 03:51:00,68.0,67.0,29.99,SE,135,0.0,1.0,95,0.00,,,0.00,,2013-02-11 09:51:00,
2013-02-11 04:01:00,68.0,67.0,29.99,SE,140,0.0,3.0,95,0.00,,,0.00,,2013-02-11 10:01:00,
2013-02-11 04:11:00,68.0,67.0,29.99,SE,140,0.0,3.0,95,0.00,,,0.00,,2013-02-11 10:11:00,
2013-02-11 04:21:00,68.0,67.0,29.98,SSE,151,1.0,3.0,96,0.00,,,0.00,,2013-02-11 10:21:00,
2013-02-11 04:31:00,68.0,67.0,29.98,South,171,2.0,5.0,96,0.00,,,0.00,,2013-02-11 10:31:00,
2013-02-11 04:42:00,68.0,67.0,29.98,South,171,2.0,5.0,96,0.00,,,0.00,,2013-02-11 10:42:00,
2013-02-11 04:51:00,68.0,67.0,29.98,South,171,2.0,5.0,96,0.00,,,0.00,,2013-02-11 10:51:00,
2013-02-11 05:01:00,68.0,67.0,29.98,SE,146,1.0,6.0,96,0.00,,,0.00,,2013-02-11 11:01:00,
2013-02-11 05:11:00,68.0,67.0,29.98,SE,146,1.0,6.0,96,0.00,,,0.00,,2013-02-11 11:11:00,
2013-02-11 05:22:00,68.0,67.0,29.98,SSW,212,1.0,3.0,96,0.00,,,0.00,,2013-02-11 11:22:00,
2013-02-11 05:32:00,68.0,67.0,29.99,SSW,205,1.0,3.0,96,0.00,,,0.00,,2013-02-11 11:32:00,
2013-02-11 05:42:00,68.0,67.0,29.99,SSW,206,0.0,3.0,96,0.00,,,0.00,,2013-02-11 11:42:00,
2013-02-11 05:52:00,68.0,67.0,29.99,SSW,206,0.0,3.0,96,0.00,,,0.00,,2013-02-11 11:52:00,
2013-02-11 06:03:00,68.0,67.0,30.00,SE,146,0.0,6.0,96,0.00,,,0.00,,2013-02-11 12:03:00,
2013-02-11 06:12:00,68.0,67.0,30.00,SE,146,0.0,6.0,96,0.00,,,0.00,,2013-02-11 12:12:00,
2013-02-11 06:22:00,68.0,67.0,30.00,SE,146,0.0,6.0,96,0.00,,,0.00,,2013-02-11 12:22:00,
2013-02-11 06:32:00,67.0,66.0,30.01,SE,127,0.0,2.0,96,0.01,,,0.01,,2013-02-11 12:32:00,
2013-02-11 06:42:00,67.0,66.0,30.01,SSE,157,0.0,2.0,96,0.01,,,0.01,,2013-02-11 12:42:00,
2013-02-11 06:52:00,67.0,66.0,30.01,SSE,157,0.0,2.0,96,0.01,,,0.01,,2013-02-11 12:52:00,
2013-02-11 07:02:00,67.0,66.0,30.02,SE,139,0.0,1.0,96,0.01,,,0.01,,2013-02-11 13:02:00,
2013-02-11 07:11:00,67.0,66.0,30.02,SE,139,0.0,1.0,96,0.01,,,0.01,,2013-02-11 13:11:00,
2013-02-11 07:22:00,67.0,66.0,30.02,SE,139,0.0,1.0,96,0.01,,,0.01,,2013-02-11 13:22:00,
2013-02-11 07:32:00,67.0,66.0,30.03,SE,139,0.0,1.0,96,0.00,,,0.01,,2013-02-11 13:32:00,
2013-02-11 07:42:00,67.0,66.0,30.03,SE,139,0.0,1.0,96,0.00,,,0.01,,2013-02-11 13:42:00,
2013-02-11 07:52:00,67.0,66.0,30.04,North,352,1.0,3.0,96,0.00,,,0.01,,2013-02-11 13:52:00,
2013-02-11 08:02:00,68.0,67.0,30.04,North,9,0.0,2.0,96,0.00,,,0.01,,2013-02-11 14:02:00,
2013-02-11 08:11:00,68.0,67.0,30.04,North,9,0.0,2.0,96,0.00,,,0.01,,2013-02-11 14:11:00,
2013-02-11 08:22:00,68.0,67.0,30.04,NW,322,0.0,2.0,96,0.00,,,0.01,,2013-02-11 14:22:00,
2013-02-11 08:33:00,69.0,68.0,30.05,North,0,0.0,3.0,96,0.00,,,0.01,,2013-02-11 14:33:00,
2013-02-11 08:42:00,69.0,68.0,30.05,North,0,0.0,3.0,96,0.00,,,0.01,,2013-02-11 14:42:00,
2013-02-11 08:52:00,69.0,68.0,30.05,North,0,0.0,3.0,96,0.00,,,0.01,,2013-02-11 14:52:00,
2013-02-11 09:02:00,64.0,62.0,30.06,NNE,26,6.0,14.0,94,0.00,,,0.01,,2013-02-11 15:02:00,
2013-02-11 09:11:00,64.0,62.0,30.06,NNE,26,6.0,14.0,94,0.00,,,0.01,,2013-02-11 15:11:00,
2013-02-11 09:22:00,62.0,60.0,30.07,North,4,6.0,12.0,94,0.00,,,0.01,,2013-02-11 15:22:00,
2013-02-11 09:32:00,62.0,60.0,30.08,NNW,335,6.0,12.0,94,0.00,,,0.01,,2013-02-11 15:32:00,
2013-02-11 09:42:00,62.0,60.0,30.08,NNW,335,6.0,12.0,94,0.00,,,0.01,,2013-02-11 15:42:00,
2013-02-11 09:52:00,62.0,60.0,30.08,NNW,335,6.0,12.0,94,0.00,,,0.01,,2013-02-11 15:52:00,
2013-02-11 10:02:00,62.0,59.0,30.06,NNE,25,10.0,17.0,89,0.01,,,0.02,,2013-02-11 16:02:00,
2013-02-11 10:12:00,62.0,59.0,30.06,NNE,25,10.0,17.0,89,0.01,,,0.02,,2013-02-11 16:12:00,
2013-02-11 10:22:00,62.0,59.0,30.06,NNE,25,10.0,17.0,89,0.01,,,0.02,,2013-02-11 16:22:00,
2013-02-11 10:32:00,61.0,58.0,30.08,North,6,6.0,12.0,90,0.07,,,0.08,,2013-02-11 16:32:00,
2013-02-11 10:42:00,61.0,58.0,30.08,North,349,4.0,8.0,91,0.14,,,0.15,,2013-02-11 16:42:00,
2013-02-11 10:52:00,61.0,58.0,30.08,North,349,4.0,8.0,91,0.14,,,0.15,,2013-02-11 16:52:00,
2013-02-11 11:02:00,61.0,58.0,30.08,North,349,4.0,8.0,91,0.14,,,0.15,,2013-02-11 17:02:00,
2013-02-11 11:11:00,61.0,58.0,30.08,North,349,4.0,8.0,91,0.14,,,0.15,,2013-02-11 17:11:00,
2013-02-11 11:22:00,60.0,58.0,30.09,NNW,340,3.0,9.0,93,0.20,,,0.22,,2013-02-11 17:22:00,
2013-02-11 11:32:00,61.0,59.0,30.09,NNE,30,3.0,9.0,94,0.17,,,0.25,,2013-02-11 17:32:00,
2013-02-11 11:42:00,61.0,59.0,30.09,NNE,30,3.0,9.0,94,0.17,,,0.25,,2013-02-11 17:42:00,
2013-02-11 11:52:00,61.0,59.0,30.10,NW,305,1.0,6.0,93,0.10,,,0.25,,2013-02-11 17:52:00,
2013-02-11 12:02:00,61.0,59.0,30.08,NNE,13,8.0,20.0,93,0.08,,,0.26,,2013-02-11 18:02:00,
2013-02-11 12:11:00,61.0,59.0,30.08,NNE,13,8.0,20.0,93,0.08,,,0.26,,2013-02-11 18:11:00,
2013-02-11 12:21:00,61.0,59.0,30.09,NNE,30,4.0,16.0,92,0.09,,,0.31,,2013-02-11 18:21:00,
2013-02-11 12:32:00,61.0,58.0,30.07,NE,34,10.0,16.0,91,0.06,,,0.31,,2013-02-11 18:32:00,
2013-02-11 12:42:00,61.0,58.0,30.07,NE,34,10.0,16.0,91,0.06,,,0.31,,2013-02-11 18:42:00,
2013-02-11 12:52:00,61.0,58.0,30.07,NE,34,10.0,16.0,91,0.06,,,0.31,,2013-02-11 18:52:00,
2013-02-11 13:02:00,61.0,58.0,30.07,NNE,32,10.0,16.0,89,0.06,,,0.31,,2013-02-11 19:02:00,
2013-02-11 13:11:00,61.0,58.0,30.07,NNE,32,10.0,16.0,89,0.06,,,0.31,,2013-02-11 19:11:00,
2013-02-11 13:22:00,61.0,58.0,30.07,NNE,32,10.0,16.0,89,0.06,,,0.31,,2013-02-11 19:22:00,
2013-02-11 13:32:00,61.0,57.0,30.06,NE,50,9.0,18.0,87,0.00,,,0.31,,2013-02-11 19:32:00,
2013-02-11 13:42:00,61.0,57.0,30.06,NE,50,9.0,18.0,87,0.00,,,0.31,,2013-02-11 19:42:00,
2013-02-11 13:52:00,60.0,55.0,30.06,NNE,32,10.0,18.0,83,0.00,,,0.31,,2013-02-11 19:52:00,
2013-02-11 14:01:00,60.0,55.0,30.05,NE,43,8.0,17.0,83,0.00,,,0.31,,2013-02-11 20:01:00,
2013-02-11 14:11:00,60.0,55.0,30.05,NE,43,8.0,17.0,83,0.00,,,0.31,,2013-02-11 20:11:00,
2013-02-11 14:21:00,60.0,55.0,30.05,NE,43,8.0,17.0,83,0.00,,,0.31,,2013-02-11 20:21:00,
2013-02-11 14:32:00,60.0,55.0,30.04,NNE,32,7.0,16.0,84,0.00,,,0.31,,2013-02-11 20:32:00,
2013-02-11 14:42:00,60.0,55.0,30.03,NNE,30,11.0,15.0,85,0.00,,,0.31,,2013-02-11 20:42:00,
2013-02-11 14:52:00,60.0,55.0,30.03,NNE,30,11.0,15.0,85,0.00,,,0.31,,2013-02-11 20:52:00,
2013-02-11 15:02:00,60.0,56.0,30.03,ENE,58,5.0,17.0,87,0.00,,,0.31,,2013-02-11 21:02:00,
2013-02-11 15:11:00,60.0,56.0,30.02,NE,40,7.0,13.0,86,0.00,,,0.31,,2013-02-11 21:11:00,
2013-02-11 15:22:00,60.0,56.0,30.02,NE,40,7.0,13.0,86,0.00,,,0.31,,2013-02-11 21:22:00,
2013-02-11 15:32:00,60.0,56.0,30.01,NE,51,9.0,18.0,87,0.00,,,0.31,,2013-02-11 21:32:00,
2013-02-11 15:42:00,60.0,56.0,30.01,NE,51,9.0,18.0,87,0.00,,,0.31,,2013-02-11 21:42:00,
2013-02-11 15:52:00,60.0,56.0,30.01,NE,51,9.0,18.0,87,0.00,,,0.31,,2013-02-11 21:52:00,
2013-02-11 16:02:00,59.0,56.0,30.01,ENE,63,7.0,20.0,89,0.01,,,0.32,,2013-02-11 22:02:00,
2013-02-11 16:11:00,59.0,56.0,30.01,ENE,63,7.0,20.0,89,0.01,,,0.32,,2013-02-11 22:11:00,
2013-02-11 16:22:00,59.0,56.0,30.01,ENE,63,7.0,20.0,89,0.01,,,0.32,,2013-02-11 22:22:00,
2013-02-11 16:32:00,59.0,56.0,30.02,NNE,24,5.0,14.0,90,0.01,,,0.32,,2013-02-11 22:32:00,
2013-02-11 16:42:00,59.0,56.0,30.02,NNE,24,5.0,14.0,90,0.01,,,0.32,,2013-02-11 22:42:00,
2013-02-11 16:52:00,59.0,56.0,30.02,NE,39,1.0,10.0,90,0.00,,,0.32,,2013-02-11 22:52:00,
2013-02-11 17:02:00,60.0,57.0,30.02,NE,48,5.0,14.0,90,0.00,,,0.32,,2013-02-11 23:02:00,
2013-02-11 17:11:00,60.0,57.0,30.02,NE,48,5.0,14.0,90,0.00,,,0.32,,2013-02-11 23:11:00,
2013-02-11 17:21:00,60.0,57.0,30.02,NE,48,5.0,14.0,90,0.00,,,0.32,,2013-02-11 23:21:00,
2013-02-11 17:32:00,60.0,57.0,30.03,NE,48,10.0,16.0,90,0.00,,,0.32,,2013-02-11 23:32:00,
2013-02-11 17:42:00,60.0,57.0,30.03,NE,48,10.0,16.0,90,0.00,,,0.32,,2013-02-11 23:42:00,
2013-02-11 17:52:00,60.0,57.0,30.04,NNE,28,6.0,16.0,91,0.00,,,0.32,,2013-02-11 23:52:00,
2013-02-11 18:02:00,59.0,57.0,30.04,NE,35,3.0,12.0,92,0.01,,,0.33,,2013-02-12 00:02:00,
2013-02-11 18:11:00,59.0,57.0,30.04,NE,35,3.0,12.0,92,0.01,,,0.33,,2013-02-12 00:11:00,
2013-02-11 18:22:00,59.0,57.0,30.04,NE,35,3.0,12.0,92,0.01,,,0.33,,2013-02-12 00:22:00,
2013-02-11 18:32:00,58.0,56.0,30.03,NNE,32,4.0,8.0,93,0.03,,,0.35,,2013-02-12 00:32:00,
2013-02-11 18:42:00,58.0,56.0,30.03,NNE,32,4.0,8.0,93,0.03,,,0.35,,2013-02-12 00:42:00,
2013-02-11 18:52:00,58.0,56.0,30.03,NNE,32,4.0,8.0,93,0.03,,,0.35,,2013-02-12 00:52:00,
2013-02-11 19:02:00,58.0,56.0,30.04,NE,39,5.0,8.0,94,0.02,,,0.35,,2013-02-12 01:02:00,
2013-02-11 19:11:00,58.0,56.0,30.04,NE,39,5.0,8.0,94,0.02,,,0.35,,2013-02-12 01:11:00,
2013-02-11 19:22:00,57.0,55.0,30.03,NNE,29,4.0,12.0,94,0.01,,,0.35,,2013-02-12 01:22:00,
2013-02-11 19:32:00,57.0,55.0,30.03,NE,52,5.0,10.0,94,0.00,,,0.35,,2013-02-12 01:32:00,
2013-02-11 19:42:00,57.0,55.0,30.03,NE,52,5.0,10.0,94,0.00,,,0.35,,2013-02-12 01:42:00,
2013-02-11 19:51:00,57.0,55.0,30.03,NE,37,8.0,12.0,94,0.00,,,0.35,,2013-02-12 01:51:00,
2013-02-11 20:01:00,58.0,56.0,30.03,NE,46,5.0,12.0,94,0.00,,,0.35,,2013-02-12 02:01:00,
2013-02-11 20:12:00,58.0,56.0,30.03,NE,46,5.0,12.0,94,0.00,,,0.35,,2013-02-12 02:12:00,
2013-02-11 20:21:00,58.0,56.0,30.03,NE,46,5.0,12.0,94,0.00,,,0.35,,2013-02-12 02:21:00,
2013-02-11 20:32:00,58.0,56.0,30.04,ENE,61,3.0,8.0,94,0.00,,,0.35,,2013-02-12 02:32:00,
2013-02-11 20:42:00,58.0,56.0,30.04,ENE,61,3.0,8.0,94,0.00,,,0.35,,2013-02-12 02:42:00,
2013-02-11 20:52:00,58.0,56.0,30.04,ENE,58,3.0,8.0,94,0.00,,,0.35,,2013-02-12 02:52:00,
2013-02-11 21:02:00,59.0,57.0,30.04,East,81,3.0,10.0,93,0.00,,,0.35,,2013-02-12 03:02:00,
2013-02-11 21:11:00,59.0,57.0,30.04,East,81,3.0,10.0,93,0.00,,,0.35,,2013-02-12 03:11:00,
2013-02-11 21:21:00,59.0,57.0,30.04,ENE,63,3.0,9.0,93,0.00,,,0.35,,2013-02-12 03:21:00,
2013-02-11 21:32:00,59.0,57.0,30.04,NE,43,5.0,12.0,93,0.00,,,0.35,,2013-02-12 03:32:00,
2013-02-11 21:41:00,59.0,57.0,30.04,NE,43,5.0,12.0,93,0.00,,,0.35,,2013-02-12 03:41:00,
2013-02-11 21:51:00,59.0,57.0,30.04,NE,43,5.0,12.0,93,0.00,,,0.35,,2013-02-12 03:51:00,
2013-02-11 22:01:00,59.0,57.0,30.03,NE,45,6.0,12.0,93,0.00,,,0.35,,2013-02-12 04:01:00,
2013-02-11 22:11:00,59.0,57.0,30.03,NE,45,6.0,12.0,93,0.00,,,0.35,,2013-02-12 04:11:00,
2013-02-11 22:21:00,59.0,57.0,30.03,NE,45,6.0,12.0,93,0.00,,,0.35,,2013-02-12 04:21:00,
2013-02-11 22:31:00,59.0,57.0,30.03,ENE,65,6.0,12.0,93,0.00,,,0.35,,2013-02-12 04:31:00,
2013-02-11 22:41:00,59.0,57.0,30.03,ENE,65,6.0,12.0,93,0.00,,,0.35,,2013-02-12 04:41:00,
2013-02-11 22:52:00,59.0,57.0,30.03,NE,39,5.0,12.0,93,0.00,,,0.35,,2013-02-12 04:52:00,
2013-02-11 23:01:00,59.0,57.0,30.03,NE,43,3.0,10.0,94,0.00,,,0.35,,2013-02-12 05:01:00,
2013-02-11 23:11:00,59.0,57.0,30.03,NE,43,3.0,10.0,94,0.00,,,0.35,,2013-02-12 05:11:00,
2013-02-11 23:21:00,59.0,57.0,30.03,NE,52,5.0,12.0,94,0.00,,,0.35,,2013-02-12 05:21:00,
2013-02-11 23:31:00,59.0,57.0,30.02,NE,51,6.0,12.0,94,0.00,,,0.35,,2013-02-12 05:31:00,
2013-02-11 23:42:00,59.0,57.0,30.02,NE,51,6.0,12.0,94,0.00,,,0.35,,2013-02-12 05:42:00,
2013-02-11 23:52:00,59.0,57.0,30.02,NE,46,5.0,9.0,94,0.00,,,0.35,,2013-02-12 05:52:00,